Time;durP1;ratioP1;P1;durP2;ratioP2;P2;SDS_P1;SDS_P2;PMS_P1;PMS_P2;Temp;Humidity;BMP_temperature;BMP_pressure;BME280_temperature;BME280_humidity;BME280_pressure;Samples;Min_cycle;Max_cycle;Signal;HPM_P1;HPM_P2
2023/11/04 00:01:34;;;;;;;7.57;1.50;;;8.10;99.90;;;;;;5102176;27;20209;-48
2023/11/04 00:04:01;;;;;;;7.27;1.73;;;8.10;99.90;;;;;;5089949;28;20341;-46
2023/11/04 00:06:27;;;;;;;4.80;1.87;;;8.10;99.90;;;;;;5103812;28;20292;-46
2023/11/04 00:08:54;;;;;;;3.87;1.17;;;8.10;99.90;;;;;;5089852;28;20201;-46
2023/11/04 00:11:22;;;;;;;3.03;1.13;;;8.10;99.90;;;;;;5070527;28;20201;-44
2023/11/04 00:13:48;;;;;;;11.47;2.40;;;8.10;99.90;;;;;;5103585;28;20213;-48
2023/11/04 00:16:17;;;;;;;3.90;1.40;;;8.10;99.90;;;;;;5101994;28;20258;-48
2023/11/04 00:18:44;;;;;;;6.33;1.90;;;8.10;99.90;;;;;;5101189;28;20209;-47
2023/11/04 00:21:10;;;;;;;7.63;1.43;;;8.10;99.90;;;;;;5090464;28;20254;-46
2023/11/04 00:23:37;;;;;;;4.27;1.10;;;8.10;99.90;;;;;;5103003;28;20217;-46
2023/11/04 00:26:04;;;;;;;4.60;1.40;;;8.20;99.90;;;;;;5093262;27;20205;-47
2023/11/04 00:28:32;;;;;;;5.33;2.07;;;8.20;99.90;;;;;;5083732;28;20274;-46
2023/11/04 00:30:58;;;;;;;5.73;1.80;;;8.20;99.90;;;;;;5096775;28;20640;-46
2023/11/04 00:33:27;;;;;;;3.90;1.70;;;8.20;99.90;;;;;;5099287;28;20201;-44
2023/11/04 00:35:54;;;;;;;4.17;1.60;;;8.20;99.90;;;;;;5092841;28;20193;-45
2023/11/04 00:38:21;;;;;;;9.00;2.33;;;8.20;99.90;;;;;;5100432;28;20197;-44
2023/11/04 00:40:48;;;;;;;6.30;1.67;;;8.20;99.90;;;;;;5104342;28;20193;-45
2023/11/04 00:43:14;;;;;;;5.70;1.73;;;8.20;99.90;;;;;;5069845;28;20251;-46
2023/11/04 00:45:41;;;;;;;4.27;1.60;;;8.20;99.90;;;;;;5103563;28;20659;-45
2023/11/04 00:48:09;;;;;;;4.10;1.63;;;8.10;99.90;;;;;;5099526;28;20193;-48
2023/11/04 00:50:37;;;;;;;3.23;1.33;;;8.10;99.90;;;;;;5091456;28;20209;-50
2023/11/04 00:53:04;;;;;;;6.33;1.43;;;8.00;99.90;;;;;;5101726;28;20193;-44
2023/11/04 00:55:31;;;;;;;4.47;1.80;;;8.00;99.90;;;;;;5100252;28;20213;-47
2023/11/04 00:57:58;;;;;;;5.33;1.37;;;7.90;99.90;;;;;;5102474;28;20189;-44
2023/11/04 01:00:26;;;;;;;7.47;1.47;;;7.90;99.90;;;;;;5068186;27;20872;-45
2023/11/04 01:02:54;;;;;;;3.13;1.30;;;7.90;99.90;;;;;;5102369;27;20319;-47
2023/11/04 01:05:22;;;;;;;5.50;1.37;;;7.90;99.90;;;;;;5100076;28;20209;-49
2023/11/04 01:07:50;;;;;;;7.23;2.03;;;7.90;99.90;;;;;;5093727;28;20227;-47
2023/11/04 01:10:17;;;;;;;6.20;1.63;;;7.80;99.90;;;;;;5099946;28;20197;-46
2023/11/04 01:12:44;;;;;;;5.63;1.47;;;7.70;99.90;;;;;;5102147;27;20197;-46
2023/11/04 01:15:11;;;;;;;3.40;1.50;;;7.70;99.90;;;;;;5069533;28;20683;-45
2023/11/04 01:17:38;;;;;;;5.27;1.30;;;7.70;99.90;;;;;;5102705;28;20197;-45
2023/11/04 01:20:07;;;;;;;5.97;1.50;;;7.70;99.90;;;;;;5102203;28;20226;-47
2023/11/04 01:22:34;;;;;;;8.97;1.73;;;7.70;99.90;;;;;;5091000;27;20304;-48
2023/11/04 01:25:03;;;;;;;6.73;1.70;;;7.70;99.90;;;;;;5102590;28;20217;-47
2023/11/04 01:27:29;;;;;;;7.27;1.73;;;7.60;99.90;;;;;;5099184;28;20288;-46
2023/11/04 01:29:56;;;;;;;3.27;1.40;;;7.60;99.90;;;;;;5072198;28;20294;-45
2023/11/04 01:32:23;;;;;;;2.90;1.50;;;7.60;99.90;;;;;;5095150;28;20286;-45
2023/11/04 01:34:50;;;;;;;5.53;1.90;;;7.60;99.90;;;;;;5101934;28;20217;-44
2023/11/04 01:37:19;;;;;;;6.67;1.60;;;7.60;99.90;;;;;;5088289;28;20262;-47
2023/11/04 01:39:45;;;;;;;5.77;2.23;;;7.50;99.90;;;;;;5102552;28;20190;-47
2023/11/04 01:42:14;;;;;;;3.77;1.50;;;7.50;99.90;;;;;;5098196;28;20493;-44
2023/11/04 01:44:40;;;;;;;3.03;1.40;;;7.50;99.90;;;;;;5101314;28;20224;-44
2023/11/04 01:47:07;;;;;;;6.00;1.70;;;7.50;99.90;;;;;;5071559;28;20563;-45
2023/11/04 01:49:34;;;;;;;4.03;1.80;;;7.50;99.90;;;;;;5099933;28;20262;-44
2023/11/04 01:52:02;;;;;;;4.43;1.50;;;7.60;99.90;;;;;;5100936;28;20257;-49
2023/11/04 01:54:30;;;;;;;8.80;2.60;;;7.50;99.90;;;;;;5092227;28;20963;-46
2023/11/04 01:56:58;;;;;;;3.87;1.10;;;7.60;99.90;;;;;;5101491;28;20221;-46
2023/11/04 01:59:27;;;;;;;2.07;1.40;;;7.60;99.90;;;;;;5097579;28;20194;-47
2023/11/04 02:01:54;;;;;;;2.70;1.63;;;7.60;99.90;;;;;;5071404;28;20336;-51
2023/11/04 02:04:21;;;;;;;3.20;1.53;;;7.70;99.90;;;;;;5099054;28;20221;-45
2023/11/04 02:06:48;;;;;;;2.83;1.80;;;7.70;99.90;;;;;;5102775;28;20212;-49
2023/11/04 02:09:15;;;;;;;3.07;1.27;;;7.70;99.90;;;;;;5089394;28;20213;-49
2023/11/04 02:11:42;;;;;;;2.10;1.80;;;7.70;99.90;;;;;;5099013;28;20724;-46
2023/11/04 02:14:11;;;;;;;3.50;1.90;;;7.70;99.90;;;;;;5098430;28;20205;-46
2023/11/04 02:16:40;;;;;;;3.67;1.40;;;7.70;99.90;;;;;;5071165;28;21417;-45
2023/11/04 02:19:07;;;;;;;9.57;1.93;;;7.70;99.90;;;;;;5088797;28;20276;-47
2023/11/04 02:21:35;;;;;;;4.13;1.70;;;7.70;99.90;;;;;;5100763;28;20310;-45
2023/11/04 02:24:02;;;;;;;4.83;1.60;;;7.60;99.90;;;;;;5088231;28;20221;-44
2023/11/04 02:26:28;;;;;;;3.10;1.33;;;7.60;99.90;;;;;;5101574;28;20197;-46
2023/11/04 02:28:57;;;;;;;8.53;1.93;;;7.60;99.90;;;;;;5099331;28;20254;-46
2023/11/04 02:31:24;;;;;;;7.13;1.53;;;7.60;99.90;;;;;;5100658;28;20679;-45
2023/11/04 02:33:50;;;;;;;3.37;1.53;;;7.50;99.90;;;;;;5069546;28;20242;-50
2023/11/04 02:36:17;;;;;;;2.77;1.30;;;7.50;99.90;;;;;;5099999;28;20205;-48
2023/11/04 02:38:45;;;;;;;5.03;1.70;;;7.40;99.90;;;;;;5102389;28;20185;-48
2023/11/04 02:41:12;;;;;;;3.77;1.57;;;7.40;99.90;;;;;;5091805;28;20185;-46
2023/11/04 02:43:39;;;;;;;4.87;1.97;;;7.40;99.90;;;;;;5101149;28;20557;-48
2023/11/04 02:46:06;;;;;;;2.07;1.50;;;7.40;99.90;;;;;;5097220;28;20208;-46
2023/11/04 02:48:33;;;;;;;3.97;1.90;;;7.30;99.90;;;;;;5070148;28;20213;-48
2023/11/04 02:51:00;;;;;;;7.17;2.00;;;7.30;99.90;;;;;;5098981;28;20225;-47
2023/11/04 02:53:27;;;;;;;5.60;2.37;;;7.30;99.90;;;;;;5102374;28;20197;-45
2023/11/04 02:55:55;;;;;;;3.30;1.53;;;7.30;99.90;;;;;;5090767;28;20205;-52
2023/11/04 02:58:22;;;;;;;4.87;1.80;;;7.30;99.90;;;;;;5101136;28;20189;-45
2023/11/04 03:00:49;;;;;;;2.70;2.10;;;7.20;99.90;;;;;;5097944;28;20706;-47
2023/11/04 03:03:15;;;;;;;2.03;1.50;;;7.20;99.90;;;;;;5068219;28;20293;-46
2023/11/04 03:05:43;;;;;;;6.67;1.40;;;7.20;99.90;;;;;;5101040;28;20787;-45
2023/11/04 03:08:10;;;;;;;7.37;1.80;;;7.20;99.90;;;;;;5099349;28;20220;-45
2023/11/04 03:10:37;;;;;;;4.50;1.67;;;7.20;99.90;;;;;;5092559;28;20238;-44
2023/11/04 03:13:05;;;;;;;3.60;1.80;;;7.10;99.90;;;;;;5098331;28;20193;-47
2023/11/04 03:15:32;;;;;;;5.23;1.70;;;7.10;99.90;;;;;;5099533;28;20220;-47
2023/11/04 03:17:59;;;;;;;4.70;1.60;;;7.10;99.90;;;;;;5099093;28;20238;-47
2023/11/04 03:20:26;;;;;;;4.60;1.20;;;7.10;99.90;;;;;;5069933;28;20228;-49
2023/11/04 03:22:53;;;;;;;5.50;1.70;;;7.10;99.90;;;;;;5100199;28;20189;-46
2023/11/04 03:25:21;;;;;;;2.10;1.50;;;7.10;99.90;;;;;;5099093;28;20220;-46
2023/11/04 03:27:48;;;;;;;2.27;1.30;;;7.00;99.90;;;;;;5090406;28;20664;-47
2023/11/04 03:30:16;;;;;;;3.03;1.30;;;7.00;99.90;;;;;;5099011;28;20205;-48
2023/11/04 03:32:43;;;;;;;3.70;1.40;;;7.00;99.90;;;;;;5098506;28;20276;-46
2023/11/04 03:35:11;;;;;;;4.77;1.47;;;7.00;99.90;;;;;;5066903;28;20205;-47
2023/11/04 03:37:38;;;;;;;4.57;1.47;;;7.00;99.90;;;;;;5101676;28;20197;-46
2023/11/04 03:40:06;;;;;;;5.17;1.50;;;7.00;99.90;;;;;;5097471;28;20197;-50
2023/11/04 03:42:36;;;;;;;5.50;1.40;;;7.00;99.90;;;;;;5090747;28;20664;-47
2023/11/04 03:45:04;;;;;;;3.40;1.40;;;7.00;99.90;;;;;;5096616;28;20233;-49
2023/11/04 03:47:32;;;;;;;7.37;1.20;;;7.00;99.90;;;;;;5103637;28;20189;-49
2023/11/04 03:49:59;;;;;;;4.70;1.37;;;7.00;99.90;;;;;;5077464;27;20193;-45
2023/11/04 03:52:26;;;;;;;4.20;1.30;;;6.90;99.90;;;;;;5095850;28;20728;-47
2023/11/04 03:54:53;;;;;;;3.87;1.07;;;7.00;99.90;;;;;;5103395;28;20761;-45
2023/11/04 03:57:20;;;;;;;2.47;1.33;;;7.00;99.90;;;;;;5093984;28;20837;-46
2023/11/04 03:59:46;;;;;;;2.67;1.33;;;7.00;99.90;;;;;;5104911;28;20325;-48
2023/11/04 04:02:13;;;;;;;1.97;1.27;;;6.90;99.90;;;;;;5102311;28;20246;-49
2023/11/04 04:04:41;;;;;;;4.77;1.20;;;6.90;99.90;;;;;;5103942;28;20583;-45
2023/11/04 04:07:08;;;;;;;4.33;1.13;;;6.90;99.90;;;;;;5065859;28;20201;-45
2023/11/04 04:09:35;;;;;;;3.37;1.20;;;6.90;99.90;;;;;;5105507;28;20193;-45
2023/11/04 04:12:02;;;;;;;2.33;1.07;;;6.90;99.90;;;;;;5080128;28;20209;-46
2023/11/04 04:14:29;;;;;;;1.77;1.00;;;6.90;99.90;;;;;;5105735;28;20576;-45
2023/11/04 04:16:55;;;;;;;2.73;1.20;;;6.90;99.90;;;;;;5105957;27;20193;-50
2023/11/04 04:19:22;;;;;;;3.23;0.93;;;6.90;99.90;;;;;;5106132;27;20254;-48
2023/11/04 04:21:50;;;;;;;4.70;1.20;;;6.90;99.90;;;;;;5075162;27;20675;-50
2023/11/04 04:24:17;;;;;;;1.80;1.20;;;6.80;99.90;;;;;;5110027;27;20225;-48
2023/11/04 04:26:44;;;;;;;4.87;1.63;;;6.80;99.90;;;;;;5093691;27;20580;-49
2023/11/04 04:29:11;;;;;;;4.03;1.50;;;6.80;99.90;;;;;;5087391;28;20211;-47
2023/11/04 04:31:38;;;;;;;4.03;1.57;;;6.80;99.90;;;;;;5092605;27;20805;-46
2023/11/04 04:34:05;;;;;;;3.07;1.40;;;6.70;99.90;;;;;;5104577;28;20211;-46
2023/11/04 04:36:32;;;;;;;4.63;1.30;;;6.70;99.90;;;;;;5078942;28;20259;-45
2023/11/04 04:39:00;;;;;;;2.37;1.13;;;6.70;99.90;;;;;;5095202;28;20204;-46
2023/11/04 04:41:27;;;;;;;4.20;1.27;;;6.60;99.90;;;;;;5099238;28;20197;-44
2023/11/04 04:43:54;;;;;;;4.77;1.17;;;6.60;99.90;;;;;;5091316;28;20229;-45
2023/11/04 04:46:21;;;;;;;4.93;1.23;;;6.50;99.90;;;;;;5103075;28;20273;-48
2023/11/04 04:48:48;;;;;;;3.70;1.20;;;6.50;99.90;;;;;;5091310;28;20185;-45
2023/11/04 04:51:16;;;;;;;4.57;1.30;;;6.40;99.90;;;;;;5103900;28;20229;-47
2023/11/04 04:53:44;;;;;;;4.60;1.37;;;6.40;99.90;;;;;;5070060;28;20197;-50
2023/11/04 04:56:14;;;;;;;3.40;1.40;;;6.30;99.90;;;;;;5098319;28;20221;-45
2023/11/04 04:58:41;;;;;;;2.73;1.10;;;6.30;99.90;;;;;;5087867;28;20289;-48
2023/11/04 05:01:08;;;;;;;3.73;1.60;;;6.30;99.90;;;;;;5094412;27;20204;-49
2023/11/04 05:03:35;;;;;;;3.03;1.53;;;6.20;99.90;;;;;;5098696;27;20262;-49
2023/11/04 05:06:02;;;;;;;3.97;1.67;;;6.20;99.90;;;;;;5062286;27;20197;-48
2023/11/04 05:08:29;;;;;;;3.27;1.20;;;6.20;99.90;;;;;;5065567;28;20217;-49
2023/11/04 05:10:56;;;;;;;3.20;1.43;;;6.10;99.90;;;;;;5100465;27;20673;-47
2023/11/04 05:13:26;;;;;;;4.53;1.50;;;6.10;99.90;;;;;;5105966;27;20192;-48
2023/11/04 05:15:53;;;;;;;1.97;1.30;;;6.00;99.90;;;;;;5087087;28;20583;-46
2023/11/04 05:18:20;;;;;;;4.07;1.37;;;6.00;99.90;;;;;;5089530;28;20197;-45
2023/11/04 05:20:47;;;;;;;6.40;1.33;;;6.00;99.90;;;;;;5089573;27;20259;-48
2023/11/04 05:23:14;;;;;;;3.17;1.23;;;5.90;99.90;;;;;;5064061;28;20186;-48
2023/11/04 05:25:41;;;;;;;3.07;1.20;;;5.90;99.90;;;;;;5102564;28;20278;-49
2023/11/04 05:28:07;;;;;;;4.73;1.40;;;5.90;99.90;;;;;;5102313;27;20229;-48
2023/11/04 05:30:37;;;;;;;3.63;1.40;;;5.80;99.90;;;;;;5079523;28;20213;-45
2023/11/04 05:33:04;;;;;;;5.87;1.13;;;5.80;99.90;;;;;;5103338;28;20209;-45
2023/11/04 05:35:32;;;;;;;5.40;1.47;;;5.80;99.90;;;;;;5093386;28;20217;-47
2023/11/04 05:37:59;;;;;;;2.57;1.10;;;5.70;99.90;;;;;;5064593;28;20194;-48
2023/11/04 05:40:28;;;;;;;3.53;1.30;;;5.70;99.90;;;;;;5094477;28;20724;-47
2023/11/04 05:42:55;;;;;;;4.17;1.10;;;5.70;99.90;;;;;;5102812;28;20202;-50
2023/11/04 05:45:24;;;;;;;3.40;1.10;;;5.70;99.90;;;;;;5096033;28;20213;-45
2023/11/04 05:47:52;;;;;;;1.53;1.43;;;5.70;99.90;;;;;;5098465;28;20817;-45
2023/11/04 05:50:19;;;;;;;5.57;1.43;;;5.60;99.90;;;;;;5101669;28;20189;-47
2023/11/04 05:52:45;;;;;;;3.43;1.33;;;5.60;99.90;;;;;;5095673;28;20197;-49
2023/11/04 05:55:13;;;;;;;1.83;1.17;;;5.60;99.90;;;;;;5073763;27;20282;-47
2023/11/04 05:57:40;;;;;;;12.00;1.40;;;5.60;99.90;;;;;;5099841;28;20839;-45
2023/11/04 06:00:11;;;;;;;4.60;1.00;;;5.60;99.90;;;;;;5102705;28;20197;-49
2023/11/04 06:02:38;;;;;;;8.67;1.47;;;5.50;99.90;;;;;;5088577;28;20273;-45
2023/11/04 06:05:07;;;;;;;2.90;1.20;;;5.50;99.90;;;;;;5102318;28;20588;-45
2023/11/04 06:07:35;;;;;;;5.63;1.30;;;5.50;99.90;;;;;;5099077;27;20204;-44
2023/11/04 06:10:02;;;;;;;1.93;1.17;;;5.50;99.90;;;;;;5070475;27;20216;-49
2023/11/04 06:12:28;;;;;;;6.13;1.30;;;5.50;99.90;;;;;;5099817;28;20560;-48
2023/11/04 06:14:55;;;;;;;2.30;1.10;;;5.40;99.90;;;;;;5104372;27;20259;-49
2023/11/04 06:17:22;;;;;;;4.80;1.30;;;5.40;99.90;;;;;;5093063;27;20205;-46
2023/11/04 06:19:49;;;;;;;1.83;0.93;;;5.40;99.90;;;;;;5101015;28;20766;-49
2023/11/04 06:22:19;;;;;;;3.70;1.63;;;5.40;99.90;;;;;;5095588;27;20197;-48
2023/11/04 06:24:46;;;;;;;2.47;1.30;;;5.40;99.90;;;;;;5065305;28;20361;-48
2023/11/04 06:27:13;;;;;;;3.07;1.50;;;5.40;99.90;;;;;;5102096;28;20696;-48
2023/11/04 06:29:39;;;;;;;2.17;1.20;;;5.40;99.90;;;;;;5098820;28;20293;-47
2023/11/04 06:32:07;;;;;;;2.33;1.27;;;5.40;99.90;;;;;;5104146;28;20250;-47
2023/11/04 06:34:34;;;;;;;3.00;1.10;;;5.40;99.90;;;;;;5088157;28;20210;-47
2023/11/04 06:37:02;;;;;;;2.97;1.20;;;5.50;99.90;;;;;;5095809;28;20216;-50
2023/11/04 06:39:30;;;;;;;1.83;1.07;;;5.60;99.90;;;;;;5101592;28;20201;-47
2023/11/04 06:41:57;;;;;;;2.27;1.00;;;5.60;99.90;;;;;;5068349;28;20598;-46
2023/11/04 06:44:24;;;;;;;1.20;0.80;;;5.70;99.90;;;;;;5100167;28;20683;-48
2023/11/04 06:46:52;;;;;;;0.70;0.53;;;5.70;99.90;;;;;;5101115;28;20251;-48
2023/11/04 06:49:20;;;;;;;1.97;1.03;;;5.80;99.90;;;;;;5079273;28;20205;-48
2023/11/04 06:51:47;;;;;;;2.07;1.00;;;5.90;99.90;;;;;;5096781;28;20697;-45
2023/11/04 06:54:13;;;;;;;1.10;0.90;;;5.90;99.90;;;;;;5084500;28;20796;-49
2023/11/04 06:56:42;;;;;;;3.47;1.00;;;6.00;99.90;;;;;;5063481;28;20216;-49
2023/11/04 06:59:08;;;;;;;3.03;0.90;;;6.00;99.90;;;;;;5101467;28;20856;-48
2023/11/04 07:01:35;;;;;;;2.93;1.03;;;6.00;99.90;;;;;;5104285;28;20193;-46
2023/11/04 07:04:02;;;;;;;2.80;1.23;;;6.00;99.90;;;;;;5089936;28;20941;-47
2023/11/04 07:06:29;;;;;;;2.20;0.70;;;6.10;99.90;;;;;;5110072;28;20201;-49
2023/11/04 07:08:56;;;;;;;3.33;1.10;;;6.10;99.90;;;;;;5089356;28;20856;-46
2023/11/04 07:11:23;;;;;;;2.67;0.87;;;6.10;99.90;;;;;;5071147;28;20213;-45
2023/11/04 07:13:51;;;;;;;3.40;0.83;;;6.10;99.90;;;;;;5099351;28;20221;-46
2023/11/04 07:16:18;;;;;;;1.43;0.90;;;6.10;99.90;;;;;;5102165;28;20196;-45
2023/11/04 07:18:45;;;;;;;2.23;1.00;;;6.20;99.90;;;;;;5088856;28;20201;-48
2023/11/04 07:21:12;;;;;;;1.60;0.90;;;6.20;99.90;;;;;;5108358;27;20255;-45
2023/11/04 07:23:39;;;;;;;2.57;1.10;;;6.20;99.90;;;;;;5106471;27;20266;-45
2023/11/04 07:26:07;;;;;;;2.20;0.90;;;6.30;99.90;;;;;;5101664;27;20224;-47
2023/11/04 07:28:35;;;;;;;2.27;1.00;;;6.30;99.90;;;;;;5073556;27;20209;-47
2023/11/04 07:31:04;;;;;;;2.73;0.77;;;6.30;99.90;;;;;;5102409;27;20182;-46
2023/11/04 07:33:31;;;;;;;0.97;0.90;;;6.40;99.90;;;;;;5105787;28;20532;-47
2023/11/04 07:35:58;;;;;;;3.33;1.33;;;6.40;99.90;;;;;;5091656;27;20205;-44
2023/11/04 07:38:25;;;;;;;3.67;1.10;;;6.50;99.90;;;;;;5105477;28;20198;-45
2023/11/04 07:40:52;;;;;;;5.33;1.10;;;6.50;99.90;;;;;;5093494;28;20200;-49
2023/11/04 07:43:19;;;;;;;5.13;1.17;;;6.60;99.90;;;;;;5070458;27;20247;-45
2023/11/04 07:45:46;;;;;;;2.67;1.10;;;6.60;99.90;;;;;;5103638;27;20221;-45
2023/11/04 07:48:14;;;;;;;1.60;0.97;;;6.70;99.90;;;;;;5103980;28;20214;-45
2023/11/04 07:50:42;;;;;;;1.83;0.97;;;6.70;99.90;;;;;;5091953;28;20357;-51
2023/11/04 07:53:09;;;;;;;1.93;1.10;;;6.80;99.90;;;;;;5102659;28;20190;-44
2023/11/04 07:55:37;;;;;;;3.30;0.80;;;6.80;99.90;;;;;;5078936;28;20240;-46
2023/11/04 07:58:04;;;;;;;5.33;0.93;;;6.90;99.90;;;;;;5065730;27;20201;-43
2023/11/04 08:00:31;;;;;;;2.40;0.80;;;6.90;99.90;;;;;;5102599;28;20647;-45
2023/11/04 08:02:58;;;;;;;2.33;0.77;;;7.00;99.90;;;;;;5096852;28;20795;-44
2023/11/04 08:05:26;;;;;;;2.27;0.70;;;7.10;99.90;;;;;;5084301;28;21834;-45
2023/11/04 08:07:53;;;;;;;3.53;1.10;;;7.20;99.90;;;;;;5103748;27;20194;-45
2023/11/04 08:10:20;;;;;;;2.00;0.97;;;7.20;99.90;;;;;;5095369;28;23212;-45
2023/11/04 08:12:47;;;;;;;2.63;0.80;;;7.30;99.90;;;;;;5095562;28;20221;-50
2023/11/04 08:15:14;;;;;;;2.03;0.97;;;7.40;99.90;;;;;;5063666;28;20270;-45
2023/11/04 08:17:41;;;;;;;2.13;1.00;;;7.50;99.90;;;;;;5104833;28;20205;-45
2023/11/04 08:20:09;;;;;;;2.53;1.00;;;7.50;99.90;;;;;;5081133;28;20214;-44
2023/11/04 08:22:39;;;;;;;4.93;1.30;;;7.60;99.90;;;;;;5113686;27;20198;-43
2023/11/04 08:25:07;;;;;;;2.17;0.70;;;7.70;99.90;;;;;;5101503;27;20292;-46
2023/11/04 08:27:34;;;;;;;4.70;0.90;;;7.70;99.90;;;;;;5094947;28;20679;-48
2023/11/04 08:30:02;;;;;;;1.30;0.70;;;7.80;99.90;;;;;;5062530;27;20235;-43
2023/11/04 08:32:29;;;;;;;1.10;0.70;;;7.80;99.90;;;;;;5103161;28;20557;-45
2023/11/04 08:34:58;;;;;;;1.43;0.70;;;7.90;99.90;;;;;;5100390;27;20206;-48
2023/11/04 08:37:25;;;;;;;2.83;0.73;;;7.90;99.90;;;;;;5090928;27;20192;-44
2023/11/04 08:39:54;;;;;;;1.17;0.60;;;8.00;99.90;;;;;;5103812;28;20199;-50
2023/11/04 08:42:21;;;;;;;3.43;0.87;;;8.00;99.90;;;;;;5092470;27;20217;-44
2023/11/04 08:44:48;;;;;;;3.67;0.77;;;8.10;99.90;;;;;;5102456;28;20213;-49
2023/11/04 08:47:16;;;;;;;2.20;0.80;;;8.10;99.90;;;;;;5076002;27;21040;-44
2023/11/04 08:49:43;;;;;;;1.67;0.83;;;8.20;99.90;;;;;;5105622;27;20545;-46
2023/11/04 08:52:10;;;;;;;3.20;0.70;;;8.30;99.90;;;;;;5077278;28;20201;-45
2023/11/04 08:54:40;;;;;;;2.70;0.90;;;8.30;99.90;;;;;;5102019;27;20218;-44
2023/11/04 08:57:08;;;;;;;3.60;1.10;;;8.30;99.90;;;;;;5088606;27;20193;-50
2023/11/04 08:59:35;;;;;;;2.67;0.87;;;8.40;99.90;;;;;;5097878;28;20274;-50
2023/11/04 09:02:02;;;;;;;3.90;0.70;;;8.40;99.90;;;;;;5077125;27;20648;-46
2023/11/04 09:04:28;;;;;;;1.43;0.80;;;8.40;99.90;;;;;;5095222;28;20589;-44
2023/11/04 09:06:56;;;;;;;3.47;0.90;;;8.50;99.90;;;;;;5098407;28;20209;-46
2023/11/04 09:09:22;;;;;;;2.13;0.67;;;8.50;99.90;;;;;;5098203;27;20200;-48
2023/11/04 09:11:49;;;;;;;0.63;0.60;;;8.60;99.90;;;;;;5103963;28;20185;-48
2023/11/04 09:14:17;;;;;;;1.20;0.80;;;8.70;99.90;;;;;;5092674;27;20282;-44
2023/11/04 09:16:44;;;;;;;3.60;1.03;;;8.70;99.90;;;;;;5073244;27;20239;-45
2023/11/04 09:19:11;;;;;;;1.40;0.73;;;8.80;99.90;;;;;;5095945;28;20193;-46
2023/11/04 09:21:39;;;;;;;1.67;0.63;;;8.90;99.90;;;;;;5095209;28;20287;-44
2023/11/04 09:24:07;;;;;;;1.90;1.13;;;8.90;99.90;;;;;;5091007;27;20217;-45
2023/11/04 09:26:34;;;;;;;2.00;1.30;;;9.00;99.90;;;;;;5100978;27;20258;-44
2023/11/04 09:29:02;;;;;;;1.73;0.80;;;9.00;99.90;;;;;;5095559;27;20213;-46
2023/11/04 09:31:30;;;;;;;1.40;0.70;;;9.10;99.90;;;;;;5068538;28;20685;-44
2023/11/04 09:33:57;;;;;;;1.60;0.80;;;9.10;99.90;;;;;;5103768;27;20671;-47
2023/11/04 09:36:24;;;;;;;2.23;0.70;;;9.20;99.90;;;;;;5094657;27;20210;-46
2023/11/04 09:38:51;;;;;;;2.40;0.70;;;9.30;99.90;;;;;;5101855;28;20671;-47
2023/11/04 09:41:17;;;;;;;1.37;0.77;;;9.40;99.90;;;;;;5094568;28;20925;-46
2023/11/04 09:43:44;;;;;;;0.73;0.50;;;9.50;99.90;;;;;;5100348;28;20253;-47
2023/11/04 09:46:11;;;;;;;1.77;0.63;;;9.50;99.90;;;;;;5059148;28;20310;-45
2023/11/04 09:48:40;;;;;;;1.40;0.60;;;9.50;99.90;;;;;;5091996;28;20185;-43
2023/11/04 09:51:11;;;;;;;1.33;1.00;;;9.50;99.90;;;;;;5099740;28;20201;-47
2023/11/04 09:53:45;;;;;;;1.53;0.77;;;9.60;99.90;;;;;;5092284;28;20956;-46
2023/11/04 09:56:12;;;;;;;1.30;0.80;;;9.60;99.90;;;;;;5091700;28;20674;-46
2023/11/04 09:58:39;;;;;;;1.17;0.80;;;9.60;99.90;;;;;;5099421;28;20189;-46
2023/11/04 10:01:06;;;;;;;1.40;0.70;;;9.60;99.90;;;;;;5092805;28;20563;-45
2023/11/04 10:03:33;;;;;;;1.43;0.70;;;9.70;99.90;;;;;;5069269;27;20922;-46
2023/11/04 10:06:02;;;;;;;1.30;0.70;;;9.70;99.90;;;;;;5100977;28;20212;-45
2023/11/04 10:08:28;;;;;;;1.43;0.90;;;9.70;99.90;;;;;;5097114;28;20263;-48
2023/11/04 10:10:55;;;;;;;0.53;0.53;;;9.80;99.90;;;;;;5090534;28;20189;-43
2023/11/04 10:13:22;;;;;;;1.20;0.80;;;9.80;99.90;;;;;;5097610;28;20247;-45
2023/11/04 10:15:49;;;;;;;2.43;0.60;;;9.80;99.90;;;;;;5088478;28;20248;-43
2023/11/04 10:18:16;;;;;;;2.30;0.90;;;9.90;99.90;;;;;;5072729;27;20202;-46
2023/11/04 10:20:43;;;;;;;0.90;0.60;;;10.00;99.90;;;;;;5099382;28;20205;-44
2023/11/04 10:23:12;;;;;;;1.30;0.70;;;10.00;99.90;;;;;;5097724;28;20547;-44
2023/11/04 10:25:39;;;;;;;1.60;0.60;;;10.10;99.90;;;;;;5088454;28;20274;-45
2023/11/04 10:28:05;;;;;;;1.73;0.90;;;10.10;99.90;;;;;;5102738;28;20262;-44
2023/11/04 10:30:32;;;;;;;1.80;0.70;;;10.10;99.90;;;;;;5088068;28;20845;-45
2023/11/04 10:33:07;;;;;;;2.90;0.60;;;10.20;99.90;;;;;;5101714;28;20193;-44
2023/11/04 10:35:35;;;;;;;2.47;0.60;;;10.20;99.90;;;;;;5064589;28;20209;-44
2023/11/04 10:38:05;;;;;;;0.67;0.63;;;10.20;99.90;;;;;;5110804;28;20285;-44
2023/11/04 10:40:35;;;;;;;1.50;0.60;;;10.30;99.90;;;;;;5089227;28;20285;-44
2023/11/04 10:43:06;;;;;;;2.40;0.73;;;10.30;99.90;;;;;;5102039;28;20189;-47
2023/11/04 10:45:40;;;;;;;2.33;0.73;;;10.40;99.90;;;;;;5087424;28;20753;-44
2023/11/04 10:48:16;;;;;;;1.77;0.93;;;10.40;99.90;;;;;;5099288;28;20192;-44
2023/11/04 10:50:46;;;;;;;1.97;0.60;;;10.50;99.90;;;;;;5077060;28;20245;-45
2023/11/04 10:53:28;;;;;;;1.60;0.90;;;10.60;99.90;;;;;;5099497;28;20193;-45
2023/11/04 10:56:02;;;;;;;0.80;0.60;;;10.70;99.90;;;;;;5090445;28;20209;-44
2023/11/04 10:58:34;;;;;;;1.30;0.90;;;10.80;99.90;;;;;;5104181;27;20189;-46
2023/11/04 11:01:01;;;;;;;1.13;0.77;;;11.00;99.90;;;;;;5104949;27;20201;-46
2023/11/04 11:03:29;;;;;;;2.50;0.60;;;11.00;99.90;;;;;;5090450;28;20212;-47
2023/11/04 11:05:57;;;;;;;2.30;0.53;;;11.10;99.90;;;;;;5067343;27;20213;-48
2023/11/04 11:08:26;;;;;;;0.90;0.60;;;11.20;99.90;;;;;;5105413;27;20201;-44
2023/11/04 11:11:03;;;;;;;1.83;1.00;;;11.20;99.90;;;;;;5090661;28;20300;-44
2023/11/04 11:13:35;;;;;;;1.93;0.80;;;11.30;99.90;;;;;;5105847;28;20189;-49
2023/11/04 11:16:02;;;;;;;5.27;0.80;;;11.30;99.90;;;;;;5092823;28;20190;-44
2023/11/04 11:18:29;;;;;;;0.60;0.50;;;11.30;99.90;;;;;;5094746;28;20209;-49
2023/11/04 11:21:07;;;;;;;0.60;0.50;;;11.40;99.90;;;;;;5068349;28;20263;-43
2023/11/04 11:23:34;;;;;;;0.80;0.60;;;11.30;99.90;;;;;;5102818;28;20197;-50
2023/11/04 11:26:07;;;;;;;0.50;0.47;;;11.20;99.90;;;;;;5089306;27;20696;-48
2023/11/04 11:28:36;;;;;;;0.93;0.60;;;11.20;99.90;;;;;;5101785;28;20374;-43
2023/11/04 11:31:03;;;;;;;0.60;0.60;;;11.20;99.90;;;;;;5087887;28;20197;-49
2023/11/04 11:33:31;;;;;;;4.07;1.37;;;11.20;99.90;;;;;;5088214;28;20250;-47
2023/11/04 11:35:59;;;;;;;6.07;2.57;;;11.20;99.90;;;;;;5066109;28;20193;-51
2023/11/04 11:38:27;;;;;;;3.03;0.80;;;11.30;99.90;;;;;;5093181;28;20202;-44
2023/11/04 11:40:54;;;;;;;1.77;0.80;;;11.30;99.90;;;;;;5100345;28;20198;-46
2023/11/04 11:43:22;;;;;;;0.57;0.57;;;11.30;99.90;;;;;;5091462;27;20254;-46
2023/11/04 11:45:49;;;;;;;2.17;0.73;;;11.30;99.90;;;;;;5102550;27;20278;-45
2023/11/04 11:48:16;;;;;;;2.33;0.47;;;11.30;99.90;;;;;;5079073;28;20216;-52
2023/11/04 11:50:45;;;;;;;0.60;0.60;;;11.20;99.90;;;;;;5068739;27;20209;-47
2023/11/04 11:53:13;;;;;;;4.27;1.60;;;11.30;99.90;;;;;;5104682;27;20197;-53
2023/11/04 11:55:41;;;;;;;4.93;0.93;;;11.30;99.90;;;;;;5106309;27;20697;-44
2023/11/04 11:58:09;;;;;;;0.40;0.40;;;11.40;99.90;;;;;;5093953;27;20668;-46
2023/11/04 12:00:38;;;;;;;1.00;0.60;;;11.40;99.90;;;;;;5098964;28;20552;-44
2023/11/04 12:03:05;;;;;;;0.43;0.37;;;11.40;99.90;;;;;;5095066;28;20244;-50
2023/11/04 12:05:32;;;;;;;1.00;0.60;;;11.50;99.90;;;;;;5066147;28;20225;-44
2023/11/04 12:07:59;;;;;;;0.73;0.43;;;11.50;99.90;;;;;;5111707;27;20216;-45
2023/11/04 12:10:26;;;;;;;1.40;0.77;;;11.50;99.90;;;;;;5099948;28;20186;-48
2023/11/04 12:12:54;;;;;;;0.60;0.60;;;11.40;99.90;;;;;;5095261;28;20276;-47
2023/11/04 12:15:22;;;;;;;0.70;0.70;;;11.50;99.90;;;;;;5100762;28;20287;-48
2023/11/04 12:17:59;;;;;;;6.63;0.83;;;11.50;99.90;;;;;;5103201;27;20272;-45
2023/11/04 12:20:29;;;;;;;2.10;0.50;;;11.60;99.90;;;;;;5079250;28;20216;-44
2023/11/04 12:22:57;;;;;;;0.50;0.47;;;11.60;99.90;;;;;;5075144;28;20705;-45
2023/11/04 12:25:25;;;;;;;5.47;0.93;;;11.60;99.90;;;;;;5103165;27;20205;-44
2023/11/04 12:27:53;;;;;;;1.43;0.60;;;11.60;99.90;;;;;;5093598;28;20224;-44
2023/11/04 12:30:20;;;;;;;0.87;0.70;;;11.70;99.90;;;;;;5101571;27;20261;-44
2023/11/04 12:32:50;;;;;;;1.37;0.60;;;11.70;99.90;;;;;;5102713;27;20656;-49
2023/11/04 12:35:18;;;;;;;1.23;0.80;;;11.60;99.90;;;;;;5095717;27;20213;-46
2023/11/04 12:37:46;;;;;;;0.80;0.60;;;11.70;99.90;;;;;;5083106;27;20194;-45
2023/11/04 12:40:13;;;;;;;0.83;0.70;;;11.60;99.90;;;;;;5097628;27;20295;-46
2023/11/04 12:42:41;;;;;;;0.97;0.60;;;11.60;99.90;;;;;;5101099;27;20194;-43
2023/11/04 12:45:09;;;;;;;1.63;0.67;;;11.60;99.90;;;;;;5093785;28;20213;-47
2023/11/04 12:47:38;;;;;;;0.40;0.40;;;11.70;99.90;;;;;;5103774;27;20217;-47
2023/11/04 12:50:05;;;;;;;0.70;0.60;;;11.60;99.90;;;;;;5094404;28;20532;-45
2023/11/04 12:52:35;;;;;;;1.37;0.70;;;11.60;99.90;;;;;;5079228;27;20216;-44
2023/11/04 12:55:03;;;;;;;1.50;0.63;;;11.70;99.90;;;;;;5103685;27;20213;-46
2023/11/04 12:57:30;;;;;;;2.40;0.80;;;11.70;99.90;;;;;;5100976;27;20639;-45